Date,TemperatureHighF,TemperatureAvgF,TemperatureLowF,DewpointHighF,DewpointAvgF,DewpointLowF,HumidityHigh,HumidityAvg,HumidityLow,PressureMaxIn,PressureMinIn,WindSpeedMaxMPH,WindSpeedAvgMPH,GustSpeedMaxMPH,PrecipitationSumIn
2013-1-1,29,10,-2,14,3,-5,88,75,40,0.00,40.00,4,1,7,0.00
2013-1-2,31,15,2,13,8,-3,88,73,41,0.00,40.00,7,-5,9,0.00
2013-1-3,29,8,-5,11,-1,-9,87,71,32,0.00,40.00,6,2,7,0.00
2013-1-4,31,9,-3,7,0,-6,87,69,31,0.00,40.00,4,1,6,0.00
2013-1-5,31,8,-6,11,0,-10,86,72,33,0.00,40.00,5,1,7,0.00
2013-1-6,27,11,-4,15,3,-7,88,74,43,0.00,40.00,6,1,7,0.00
2013-1-7,36,15,1,14,6,-2,89,70,33,0.00,40.00,6,1,7,0.00
2013-1-8,40,18,5,14,9,2,90,71,30,0.00,40.00,4,1,6,0.00
2013-1-9,43,20,7,19,11,5,91,74,34,0.00,40.00,5,1,7,0.00
2013-1-10,42,21,7,27,14,5,92,77,44,0.00,40.00,17,2,27,0.00
2013-1-11,41,25,10,28,14,0,96,65,43,0.00,40.00,32,11,40,0.00
2013-1-12,24,10,-1,5,0,-6,85,66,38,0.00,40.00,6,1,7,0.00
2013-1-13,20,7,-1,7,0,-6,86,71,50,0.00,40.00,13,2,18,0.00
2013-1-14,20,2,-11,2,-8,-15,82,65,34,0.00,40.00,7,2,12,0.00
2013-1-15,18,3,-12,5,-6,-17,84,67,40,0.00,40.00,5,1,7,0.00
2013-1-16,35,14,0,9,3,-4,85,65,33,0.00,40.00,6,1,7,0.00
2013-1-17,39,16,2,14,7,-1,89,71,34,0.00,40.00,4,-6,6,0.00
2013-1-18,40,15,2,15,7,-1,90,74,34,0.00,40.00,4,1,6,0.00
2013-1-19,42,18,3,16,9,1,91,71,31,0.00,40.00,4,1,6,0.00
2013-1-20,42,17,2,16,8,0,90,71,29,0.00,40.00,3,1,6,0.00
2013-1-21,43,19,3,17,9,1,90,69,29,0.00,40.00,4,1,7,0.00
2013-1-22,44,18,4,17,8,1,91,70,26,0.00,40.00,5,1,7,0.00
2013-1-23,36,19,4,16,9,2,91,70,36,0.00,40.00,4,1,6,0.00
2013-1-24,23,17,14,18,14,10,88,86,81,0.00,40.00,5,2,6,0.00
2013-1-25,40,37,34,33,32,31,93,82,72,0.00,40.00,4,1,5,0.00
2013-1-26,42,36,33,38,34,32,97,91,72,0.00,40.00,4,1,6,0.00
2013-1-27,49,36,33,39,33,29,96,88,51,0.00,40.00,6,2,12,0.00
2013-1-28,37,31,23,35,30,17,95,94,79,0.00,40.00,16,5,20,0.00
2013-1-29,31,18,6,17,10,3,89,72,43,0.00,40.00,9,-5,14,0.00
2013-1-30,27,18,6,20,14,4,90,84,65,0.00,40.00,5,2,7,0.00
2013-1-31,38,26,11,26,20,9,92,79,52,0.00,40.00,4,1,6,0.00